Time;durP1;ratioP1;P1;durP2;ratioP2;P2;SDS_P1;SDS_P2;PMS_P1;PMS_P2;Temp;Humidity;BMP_temperature;BMP_pressure;BME280_temperature;BME280_humidity;BME280_pressure;Samples;Min_cycle;Max_cycle;Signal;HPM_P1;HPM_P2
2021/03/13 00:00:11;;;;;;;13.80;6.68;;;3.50;93.60;;;;;;5075883;28;20209;-66
2021/03/13 00:02:40;;;;;;;8.68;7.43;;;3.50;93.50;;;;;;5064943;28;20228;-66
2021/03/13 00:05:09;;;;;;;8.68;6.25;;;3.60;93.50;;;;;;5075559;28;20236;-66
2021/03/13 00:07:35;;;;;;;6.70;5.43;;;3.50;93.60;;;;;;5072816;28;20208;-66
2021/03/13 00:10:04;;;;;;;11.27;5.22;;;3.60;93.50;;;;;;5076097;28;20513;-66
2021/03/13 00:12:31;;;;;;;9.85;6.60;;;3.50;93.70;;;;;;5045629;28;20232;-66
2021/03/13 00:14:58;;;;;;;7.00;5.85;;;3.60;93.60;;;;;;5066785;28;20229;-66
2021/03/13 00:17:24;;;;;;;11.98;6.00;;;3.80;93.60;;;;;;5071846;28;20421;-66
2021/03/13 00:19:51;;;;;;;9.18;4.72;;;3.50;93.60;;;;;;5062918;28;20222;-66
2021/03/13 00:22:18;;;;;;;11.75;5.78;;;3.60;93.60;;;;;;5061340;28;20200;-66
2021/03/13 00:24:45;;;;;;;14.18;5.18;;;3.60;93.60;;;;;;5071988;28;20213;-65
2021/03/13 00:27:11;;;;;;;9.18;4.95;;;3.60;93.60;;;;;;5075239;28;20246;-65
2021/03/13 00:29:38;;;;;;;14.40;5.28;;;3.60;93.60;;;;;;5051823;28;20208;-66
2021/03/13 00:32:05;;;;;;;9.30;4.93;;;3.80;93.40;;;;;;5074432;28;20205;-66
2021/03/13 00:34:32;;;;;;;8.13;4.28;;;3.80;93.20;;;;;;5075625;28;20241;-67
2021/03/13 00:36:58;;;;;;;6.35;4.80;;;3.80;93.20;;;;;;5078992;28;20216;-65
2021/03/13 00:39:41;;;;;;;8.35;4.65;;;3.90;93.00;;;;;;5079045;28;20201;-67
2021/03/13 00:42:08;;;;;;;9.32;4.57;;;3.90;92.90;;;;;;5074656;28;20211;-67
2021/03/13 00:44:34;;;;;;;8.68;4.22;;;4.00;92.80;;;;;;5060779;28;20245;-67
2021/03/13 00:47:01;;;;;;;6.95;4.55;;;4.10;92.60;;;;;;5061396;28;20238;-66
2021/03/13 00:49:29;;;;;;;8.25;5.10;;;4.10;92.50;;;;;;5061102;28;20438;-67
2021/03/13 00:51:55;;;;;;;4.93;4.30;;;4.20;92.30;;;;;;5062858;28;20410;-66
2021/03/13 00:54:22;;;;;;;4.43;3.83;;;4.40;92.00;;;;;;5061058;28;20225;-66
2021/03/13 00:56:48;;;;;;;6.80;4.43;;;4.40;92.10;;;;;;5054284;28;20210;-66
2021/03/13 00:59:15;;;;;;;6.53;4.75;;;4.50;91.90;;;;;;5075345;28;20546;-67
2021/03/13 01:01:41;;;;;;;8.10;4.80;;;4.50;91.70;;;;;;5075422;28;20406;-66
2021/03/13 01:04:08;;;;;;;7.18;4.18;;;4.50;91.70;;;;;;5071662;28;20266;-66
2021/03/13 01:06:35;;;;;;;8.43;5.10;;;4.40;91.90;;;;;;5075708;28;20252;-66
2021/03/13 01:09:04;;;;;;;7.10;5.28;;;4.20;92.30;;;;;;5070778;28;20217;-66
2021/03/13 01:11:31;;;;;;;10.05;4.75;;;4.10;92.40;;;;;;5066196;28;20202;-67
2021/03/13 01:13:57;;;;;;;6.97;4.15;;;4.20;92.40;;;;;;5073099;28;20206;-66
2021/03/13 01:16:24;;;;;;;8.05;3.80;;;4.20;92.70;;;;;;5076401;28;20249;-66
2021/03/13 01:18:51;;;;;;;7.75;4.25;;;4.20;92.60;;;;;;5075827;28;20286;-66
2021/03/13 01:21:18;;;;;;;10.32;4.70;;;4.40;92.50;;;;;;5071896;28;20305;-66
2021/03/13 01:23:44;;;;;;;9.73;4.60;;;4.40;92.40;;;;;;5077145;28;20206;-66
2021/03/13 01:26:11;;;;;;;5.05;4.22;;;4.50;92.30;;;;;;5075797;28;20237;-65
2021/03/13 01:28:37;;;;;;;6.53;4.32;;;4.60;92.30;;;;;;5077977;28;20217;-67
2021/03/13 01:31:04;;;;;;;4.90;3.50;;;4.70;91.90;;;;;;5077180;28;20774;-65
2021/03/13 01:33:30;;;;;;;5.88;3.90;;;4.60;91.90;;;;;;5078770;28;20467;-65
2021/03/13 01:35:57;;;;;;;10.02;4.85;;;4.80;91.80;;;;;;5068434;28;20241;-65
2021/03/13 01:38:24;;;;;;;6.97;4.32;;;4.80;91.80;;;;;;5064564;28;20214;-66
2021/03/13 01:40:51;;;;;;;9.20;4.80;;;4.80;91.80;;;;;;5062041;28;20218;-65
2021/03/13 01:43:17;;;;;;;5.90;4.05;;;4.60;92.10;;;;;;5075974;28;20210;-66
2021/03/13 01:45:44;;;;;;;4.60;3.13;;;4.60;92.20;;;;;;5066624;28;20245;-64
2021/03/13 01:48:11;;;;;;;4.70;3.20;;;4.70;91.90;;;;;;5070983;28;20319;-66
2021/03/13 01:50:38;;;;;;;4.53;3.22;;;4.90;91.50;;;;;;5066576;28;20298;-66
2021/03/13 01:53:04;;;;;;;7.22;3.13;;;5.10;91.30;;;;;;5073003;28;20213;-66
2021/03/13 01:55:31;;;;;;;5.63;2.90;;;5.10;91.10;;;;;;5050502;28;20208;-67
2021/03/13 01:57:58;;;;;;;7.60;3.50;;;5.30;90.70;;;;;;5064318;28;20213;-66
2021/03/13 02:00:25;;;;;;;5.72;3.08;;;5.40;90.50;;;;;;5066723;28;20207;-66
2021/03/13 02:02:52;;;;;;;8.35;3.00;;;5.60;90.30;;;;;;5065825;28;20208;-67
2021/03/13 02:05:28;;;;;;;5.45;2.58;;;5.60;90.20;;;;;;5066516;28;20234;-66
2021/03/13 02:08:33;;;;;;;3.75;2.70;;;5.60;90.20;;;;;;5071119;28;20205;-65
2021/03/13 02:11:23;;;;;;;2.92;2.72;;;5.70;90.00;;;;;;5031352;28;20206;-66
2021/03/13 02:14:04;;;;;;;3.70;2.63;;;5.70;89.50;;;;;;5066733;28;20214;-66
2021/03/13 02:17:15;;;;;;;4.82;2.50;;;5.80;89.40;;;;;;5069989;28;20206;-66
2021/03/13 02:19:58;;;;;;;4.25;2.60;;;5.70;89.30;;;;;;5070332;28;20239;-66
2021/03/13 02:22:27;;;;;;;2.83;2.63;;;5.60;90.10;;;;;;5065935;28;20202;-67
2021/03/13 02:25:38;;;;;;;5.70;2.80;;;5.60;90.20;;;;;;5067712;28;20427;-67
2021/03/13 02:28:17;;;;;;;2.95;2.67;;;5.60;90.30;;;;;;5068722;28;20355;-67
2021/03/13 02:30:45;;;;;;;2.65;2.20;;;5.80;89.90;;;;;;5075885;28;20525;-67
2021/03/13 02:33:33;;;;;;;2.58;2.15;;;6.00;89.10;;;;;;5077345;28;20211;-66
2021/03/13 02:36:08;;;;;;;4.82;3.08;;;6.00;88.50;;;;;;5076478;28;20894;-67
2021/03/13 02:39:00;;;;;;;3.80;2.85;;;6.10;88.20;;;;;;5076197;28;20277;-67
2021/03/13 02:41:34;;;;;;;3.67;2.72;;;6.20;87.90;;;;;;5077126;28;20303;-67
2021/03/13 02:44:06;;;;;;;4.45;2.85;;;6.20;87.90;;;;;;5075910;28;20195;-67
2021/03/13 02:46:37;;;;;;;2.30;2.10;;;6.30;87.50;;;;;;5077261;28;20223;-67
2021/03/13 02:49:05;;;;;;;3.70;2.20;;;6.30;87.50;;;;;;5075946;28;20206;-67
2021/03/13 02:51:32;;;;;;;3.67;2.85;;;6.50;87.00;;;;;;5068266;28;20283;-66
2021/03/13 02:54:00;;;;;;;2.17;2.05;;;6.50;86.80;;;;;;5065319;28;20203;-66
2021/03/13 02:56:27;;;;;;;3.03;2.72;;;6.50;86.60;;;;;;5065501;28;20306;-67
2021/03/13 02:58:55;;;;;;;7.68;3.00;;;6.50;86.60;;;;;;5072921;28;20214;-67
2021/03/13 03:01:27;;;;;;;4.22;3.00;;;6.50;87.00;;;;;;5067339;28;20214;-68
2021/03/13 03:03:55;;;;;;;4.60;2.70;;;6.40;87.50;;;;;;5076437;28;20206;-67
2021/03/13 03:06:24;;;;;;;3.85;2.78;;;6.50;87.50;;;;;;5075790;28;20231;-67
2021/03/13 03:08:51;;;;;;;3.20;2.90;;;6.50;88.30;;;;;;5072483;28;20203;-66
2021/03/13 03:11:20;;;;;;;2.92;2.70;;;6.50;88.50;;;;;;5069077;28;20210;-65
2021/03/13 03:13:48;;;;;;;4.13;2.65;;;6.50;89.50;;;;;;5071177;28;20202;-66
2021/03/13 03:16:16;;;;;;;3.33;3.10;;;6.60;89.10;;;;;;5072353;28;20216;-66
2021/03/13 03:18:44;;;;;;;4.28;2.97;;;6.60;89.90;;;;;;5072064;28;20245;-67
2021/03/13 03:21:11;;;;;;;5.43;3.28;;;6.50;90.10;;;;;;5054247;28;20207;-67
2021/03/13 03:23:39;;;;;;;5.20;3.63;;;6.50;90.30;;;;;;5058768;28;20209;-67
2021/03/13 03:26:05;;;;;;;8.25;3.10;;;6.50;91.10;;;;;;5071679;28;20251;-66
2021/03/13 03:28:32;;;;;;;3.90;3.03;;;6.40;91.50;;;;;;5058318;28;20206;-66
2021/03/13 03:30:59;;;;;;;6.70;3.85;;;6.30;92.20;;;;;;5071786;28;20236;-66
2021/03/13 03:33:26;;;;;;;9.65;3.28;;;6.20;92.40;;;;;;5069144;28;20203;-66
2021/03/13 03:35:53;;;;;;;3.40;3.10;;;6.20;92.30;;;;;;5053578;28;20222;-66
2021/03/13 03:38:20;;;;;;;3.25;3.03;;;6.30;92.10;;;;;;5075211;28;20606;-66
2021/03/13 03:40:46;;;;;;;3.95;3.65;;;6.30;92.20;;;;;;5077259;28;20202;-65
2021/03/13 03:43:16;;;;;;;3.30;2.80;;;6.30;92.00;;;;;;5076199;28;20221;-65
2021/03/13 03:45:48;;;;;;;4.78;2.90;;;6.20;92.10;;;;;;5075557;28;20409;-65
2021/03/13 03:48:16;;;;;;;8.63;3.38;;;6.30;91.90;;;;;;5076367;28;20213;-66
2021/03/13 03:50:44;;;;;;;7.40;3.65;;;6.20;92.10;;;;;;5075528;28;20203;-65
2021/03/13 03:53:18;;;;;;;2.95;2.75;;;6.20;91.90;;;;;;5076149;28;20217;-65
2021/03/13 03:55:48;;;;;;;4.43;2.85;;;6.30;91.70;;;;;;5070848;28;20211;-65
2021/03/13 03:58:21;;;;;;;4.25;3.33;;;6.30;91.70;;;;;;5066815;28;20586;-65
2021/03/13 04:00:50;;;;;;;6.10;3.47;;;6.30;91.70;;;;;;5067300;28;20211;-66
2021/03/13 04:03:19;;;;;;;3.53;3.22;;;6.10;92.10;;;;;;5073666;28;20288;-67
2021/03/13 04:05:47;;;;;;;3.00;2.70;;;6.20;92.00;;;;;;5059221;28;20231;-66
2021/03/13 04:08:16;;;;;;;3.75;3.45;;;6.30;91.70;;;;;;5052168;28;20207;-66
2021/03/13 04:10:50;;;;;;;6.10;3.17;;;6.20;91.90;;;;;;5071024;28;20213;-66
2021/03/13 04:13:18;;;;;;;6.20;4.10;;;6.20;92.00;;;;;;5073255;28;20203;-66
2021/03/13 04:15:47;;;;;;;4.93;3.80;;;6.10;92.10;;;;;;5074108;28;20215;-65
2021/03/13 04:18:16;;;;;;;5.95;3.88;;;6.00;92.20;;;;;;5071669;28;20216;-67
2021/03/13 04:20:47;;;;;;;4.03;3.67;;;6.00;92.00;;;;;;5075567;28;20257;-66
2021/03/13 04:23:16;;;;;;;3.78;3.47;;;6.00;92.20;;;;;;5063511;28;20454;-66
2021/03/13 04:25:42;;;;;;;4.20;3.90;;;5.90;92.30;;;;;;5080233;28;20284;-66
2021/03/13 04:28:09;;;;;;;5.35;4.20;;;5.80;92.40;;;;;;5068390;28;20208;-66
2021/03/13 04:30:36;;;;;;;4.47;3.70;;;5.80;92.60;;;;;;5071431;28;20529;-66
2021/03/13 04:33:16;;;;;;;8.18;3.80;;;5.70;92.70;;;;;;5067711;28;20203;-66
2021/03/13 04:35:45;;;;;;;4.50;3.95;;;5.70;92.80;;;;;;5074996;28;20230;-66
2021/03/13 04:38:13;;;;;;;4.03;3.70;;;5.60;93.00;;;;;;5079495;28;20277;-65
2021/03/13 04:40:40;;;;;;;5.22;4.30;;;5.50;93.10;;;;;;5076153;28;20198;-65
2021/03/13 04:43:07;;;;;;;5.75;4.30;;;5.50;93.10;;;;;;5079035;28;20208;-66
2021/03/13 04:45:35;;;;;;;4.75;4.28;;;5.50;93.20;;;;;;5074721;28;20246;-67
2021/03/13 04:48:02;;;;;;;4.60;3.80;;;5.60;93.10;;;;;;5060152;28;20649;-66
2021/03/13 04:50:29;;;;;;;9.00;4.45;;;5.40;93.20;;;;;;5065316;28;20234;-66
2021/03/13 04:52:55;;;;;;;8.32;4.20;;;5.40;93.50;;;;;;5072358;28;20428;-66
2021/03/13 04:55:22;;;;;;;6.85;3.85;;;5.30;93.60;;;;;;5066794;28;20213;-66
2021/03/13 04:57:49;;;;;;;4.28;3.88;;;5.30;93.60;;;;;;5059971;28;20393;-66
2021/03/13 05:00:17;;;;;;;7.15;4.18;;;5.10;94.00;;;;;;5065539;28;20232;-66
2021/03/13 05:02:43;;;;;;;7.22;4.60;;;5.00;94.10;;;;;;5063049;28;20210;-66
2021/03/13 05:05:11;;;;;;;8.48;5.00;;;4.90;94.30;;;;;;5046037;28;20218;-66
2021/03/13 05:07:37;;;;;;;9.82;4.82;;;4.90;94.30;;;;;;5064404;28;20225;-66
2021/03/13 05:10:05;;;;;;;7.90;5.63;;;4.90;94.40;;;;;;5072823;28;20235;-66
2021/03/13 05:12:33;;;;;;;5.70;5.10;;;4.90;94.50;;;;;;5068152;28;20285;-65
2021/03/13 05:15:01;;;;;;;4.30;3.88;;;5.00;94.30;;;;;;5070108;28;20210;-65
2021/03/13 05:17:28;;;;;;;6.88;4.43;;;5.10;94.00;;;;;;5077319;28;20210;-66
2021/03/13 05:19:54;;;;;;;8.70;5.07;;;5.10;94.00;;;;;;5074268;28;20206;-66
2021/03/13 05:22:22;;;;;;;5.10;4.30;;;5.00;94.10;;;;;;5078586;28;20237;-65
2021/03/13 05:24:52;;;;;;;7.13;5.70;;;5.00;94.20;;;;;;5074824;28;20206;-67
2021/03/13 05:27:18;;;;;;;6.05;5.20;;;5.10;94.10;;;;;;5063676;28;20253;-67
2021/03/13 05:29:45;;;;;;;7.05;5.30;;;5.10;94.10;;;;;;5077523;28;20203;-67
2021/03/13 05:32:12;;;;;;;6.93;4.82;;;5.10;94.10;;;;;;5068283;28;20211;-66
2021/03/13 05:34:38;;;;;;;6.78;4.80;;;4.90;94.10;;;;;;5074682;28;20207;-66
2021/03/13 05:37:05;;;;;;;5.80;5.25;;;5.10;93.90;;;;;;5065792;28;20258;-65
2021/03/13 05:39:32;;;;;;;7.15;5.07;;;5.20;93.80;;;;;;5077538;28;20509;-65
2021/03/13 05:41:59;;;;;;;7.30;4.82;;;5.20;93.80;;;;;;5078387;28;20381;-66
2021/03/13 05:44:26;;;;;;;5.32;4.70;;;5.30;93.70;;;;;;5077358;28;20250;-67
2021/03/13 05:46:54;;;;;;;11.63;5.32;;;5.40;93.40;;;;;;5078344;28;20221;-66
2021/03/13 05:49:22;;;;;;;11.10;7.07;;;5.50;93.30;;;;;;5078381;28;20203;-66
2021/03/13 05:51:49;;;;;;;13.20;6.90;;;5.50;93.10;;;;;;5074210;28;20721;-67
2021/03/13 05:54:17;;;;;;;13.95;6.97;;;5.50;93.30;;;;;;5077869;28;20210;-66
2021/03/13 05:56:44;;;;;;;15.13;8.13;;;5.30;93.40;;;;;;5066609;28;20494;-66
2021/03/13 05:59:12;;;;;;;20.23;7.45;;;5.40;93.40;;;;;;5075802;28;20202;-65
2021/03/13 06:01:39;;;;;;;12.75;5.70;;;5.40;93.40;;;;;;5052827;28;20202;-65
2021/03/13 06:04:22;;;;;;;8.90;5.63;;;5.30;93.30;;;;;;5074709;28;20206;-66
2021/03/13 06:06:51;;;;;;;4.18;3.40;;;5.50;93.10;;;;;;5077286;28;20218;-66
2021/03/13 06:09:18;;;;;;;6.28;4.30;;;5.50;93.00;;;;;;5069338;28;20546;-66
2021/03/13 06:11:45;;;;;;;6.15;3.78;;;5.60;92.90;;;;;;5076986;28;20207;-66
2021/03/13 06:14:11;;;;;;;3.80;3.35;;;5.60;93.20;;;;;;5077140;28;20225;-66
2021/03/13 06:16:38;;;;;;;5.93;3.80;;;5.70;92.60;;;;;;5059756;28;20424;-67
2021/03/13 06:19:05;;;;;;;6.68;4.20;;;5.80;92.30;;;;;;5076668;28;20229;-66
2021/03/13 06:21:36;;;;;;;3.63;3.15;;;6.00;92.00;;;;;;5059475;28;20203;-66
2021/03/13 06:24:24;;;;;;;3.60;3.30;;;6.20;91.70;;;;;;5073580;28;20823;-66
2021/03/13 06:26:56;;;;;;;4.13;3.55;;;6.80;90.70;;;;;;5062243;28;20216;-66
2021/03/13 06:29:23;;;;;;;4.07;3.20;;;7.20;89.30;;;;;;5061452;28;20211;-65
2021/03/13 06:32:06;;;;;;;8.35;4.07;;;7.30;87.90;;;;;;5063528;28;20207;-65
2021/03/13 06:34:48;;;;;;;5.03;3.38;;;8.10;88.00;;;;;;5068687;28;20206;-65
2021/03/13 06:37:23;;;;;;;6.32;3.92;;;7.40;87.50;;;;;;5075844;28;20241;-65
2021/03/13 06:39:50;;;;;;;3.92;3.60;;;7.90;86.90;;;;;;5069309;28;20531;-65
2021/03/13 06:42:24;;;;;;;7.55;4.18;;;9.00;82.60;;;;;;5075686;28;20549;-65
2021/03/13 06:44:58;;;;;;;4.63;4.00;;;10.00;77.80;;;;;;5069771;28;20233;-66
2021/03/13 06:47:38;;;;;;;8.10;4.82;;;10.30;76.50;;;;;;5074543;28;20568;-66
2021/03/13 06:50:21;;;;;;;5.38;4.85;;;10.80;74.30;;;;;;5069717;28;20201;-66
2021/03/13 06:52:51;;;;;;;5.97;5.03;;;11.00;71.90;;;;;;5067849;28;20221;-66
2021/03/13 06:55:25;;;;;;;5.78;4.90;;;11.40;72.30;;;;;;5062281;28;20572;-68
2021/03/13 06:58:04;;;;;;;5.00;4.53;;;11.60;70.00;;;;;;5070967;28;20198;-65
2021/03/13 07:00:36;;;;;;;7.65;4.22;;;11.60;69.70;;;;;;5057283;28;20200;-66
2021/03/13 07:03:15;;;;;;;4.40;4.10;;;11.90;68.90;;;;;;5070627;28;20206;-66
2021/03/13 07:05:44;;;;;;;4.93;4.63;;;12.60;67.10;;;;;;5070795;28;20214;-66
2021/03/13 07:08:27;;;;;;;4.68;4.38;;;13.30;62.90;;;;;;5070092;28;20207;-66
2021/03/13 07:11:16;;;;;;;4.75;4.43;;;13.80;61.40;;;;;;5069444;28;20519;-66
2021/03/13 07:13:54;;;;;;;5.32;4.82;;;14.50;58.40;;;;;;5064115;28;20191;-66
2021/03/13 07:16:22;;;;;;;4.97;4.63;;;15.00;56.60;;;;;;5067776;28;20512;-65
2021/03/13 07:18:49;;;;;;;5.22;4.82;;;15.30;56.20;;;;;;5056027;28;20212;-67
2021/03/13 07:21:18;;;;;;;5.00;4.70;;;15.20;55.80;;;;;;5072826;28;20209;-67
2021/03/13 07:23:57;;;;;;;5.10;4.80;;;16.00;54.40;;;;;;5058140;28;20443;-67
2021/03/13 07:26:26;;;;;;;4.63;4.23;;;16.10;52.80;;;;;;5066897;28;20475;-66
2021/03/13 07:28:57;;;;;;;5.37;5.00;;;16.50;52.30;;;;;;5063034;28;20422;-66
2021/03/13 07:31:26;;;;;;;5.00;4.60;;;17.40;50.80;;;;;;5067508;28;20426;-66
2021/03/13 07:33:58;;;;;;;5.30;4.90;;;17.70;48.50;;;;;;5065204;28;20418;-66
2021/03/13 07:36:25;;;;;;;4.97;4.67;;;17.90;48.10;;;;;;5065569;28;20449;-66
2021/03/13 07:38:57;;;;;;;5.40;5.00;;;18.10;47.10;;;;;;5057040;28;20418;-68
2021/03/13 07:41:24;;;;;;;5.03;4.73;;;18.30;47.00;;;;;;5058634;28;20428;-67
2021/03/13 07:43:52;;;;;;;5.17;4.77;;;18.30;47.20;;;;;;5075461;28;20439;-66
2021/03/13 07:46:22;;;;;;;7.67;5.10;;;18.30;46.70;;;;;;5061519;28;20475;-67
2021/03/13 07:48:50;;;;;;;5.50;5.00;;;18.70;45.40;;;;;;5079566;28;20430;-67
2021/03/13 07:51:20;;;;;;;5.10;4.70;;;18.90;45.20;;;;;;5080122;28;20429;-66
2021/03/13 07:53:47;;;;;;;5.13;4.73;;;20.00;42.80;;;;;;5062240;28;20773;-66
2021/03/13 07:56:15;;;;;;;5.57;5.07;;;19.60;42.80;;;;;;5080650;28;20473;-66
2021/03/13 07:58:42;;;;;;;5.47;5.00;;;20.10;42.50;;;;;;5065193;28;20429;-67
2021/03/13 08:01:12;;;;;;;5.10;4.63;;;19.40;43.10;;;;;;5076966;28;20440;-66
2021/03/13 08:03:45;;;;;;;5.50;4.87;;;19.20;43.90;;;;;;5078559;28;20422;-67
2021/03/13 08:06:13;;;;;;;5.57;5.20;;;19.20;43.80;;;;;;5079164;28;20586;-68
2021/03/13 08:08:50;;;;;;;6.60;5.10;;;19.50;43.50;;;;;;5078078;28;20418;-67
2021/03/13 08:11:18;;;;;;;5.47;5.00;;;18.90;45.90;;;;;;5072020;28;21024;-66
2021/03/13 08:13:56;;;;;;;5.30;5.00;;;19.40;43.20;;;;;;5079532;28;20422;-68
2021/03/13 08:16:35;;;;;;;5.77;5.57;;;18.90;44.40;;;;;;5076713;28;20492;-67
2021/03/13 08:19:03;;;;;;;10.03;5.37;;;18.70;44.30;;;;;;5080138;28;20425;-66
2021/03/13 08:21:36;;;;;;;5.83;5.30;;;19.00;45.00;;;;;;5072641;28;20414;-68
2021/03/13 08:24:03;;;;;;;5.53;5.23;;;19.00;43.30;;;;;;5075427;28;20429;-66
2021/03/13 08:26:36;;;;;;;5.33;4.90;;;19.20;44.30;;;;;;5072636;28;20441;-67
2021/03/13 08:29:07;;;;;;;6.17;5.57;;;19.60;43.00;;;;;;5077780;28;20439;-67
2021/03/13 08:31:36;;;;;;;5.70;5.20;;;20.00;42.20;;;;;;5056550;28;20587;-67
2021/03/13 08:34:06;;;;;;;6.23;5.70;;;20.30;42.10;;;;;;5073053;28;20431;-66
2021/03/13 08:36:51;;;;;;;7.37;5.30;;;19.70;42.60;;;;;;5077358;28;20458;-69
2021/03/13 08:39:23;;;;;;;6.07;5.63;;;19.70;42.60;;;;;;5079121;28;20504;-68
2021/03/13 08:41:52;;;;;;;6.10;4.87;;;18.70;43.90;;;;;;5077023;28;20415;-67
2021/03/13 08:44:19;;;;;;;6.13;5.57;;;17.60;46.70;;;;;;5078793;28;20895;-68
2021/03/13 08:46:56;;;;;;;7.90;5.53;;;17.60;47.90;;;;;;5072917;28;20410;-67
2021/03/13 08:49:25;;;;;;;4.97;4.57;;;17.80;46.50;;;;;;5079217;28;20424;-67
2021/03/13 08:52:10;;;;;;;4.87;4.40;;;18.60;47.10;;;;;;5072314;28;20470;-68
2021/03/13 08:54:38;;;;;;;4.53;4.30;;;19.30;44.30;;;;;;5078751;28;20632;-69
2021/03/13 08:57:13;;;;;;;8.60;6.70;;;19.60;42.70;;;;;;5077318;28;20450;-69
2021/03/13 08:59:45;;;;;;;5.23;4.83;;;19.60;42.90;;;;;;5072712;28;20402;-65
2021/03/13 09:02:17;;;;;;;5.20;4.80;;;19.70;42.70;;;;;;5075391;28;20422;-68
2021/03/13 09:04:46;;;;;;;4.90;4.70;;;19.70;42.50;;;;;;5078626;28;20414;-68
2021/03/13 09:07:14;;;;;;;5.43;5.03;;;19.20;43.50;;;;;;5077993;28;20478;-68
2021/03/13 09:09:42;;;;;;;5.17;4.80;;;18.90;45.00;;;;;;5077528;28;20414;-67
2021/03/13 09:12:14;;;;;;;5.13;4.67;;;18.70;45.60;;;;;;5077268;28;20627;-67
2021/03/13 09:14:50;;;;;;;7.80;5.70;;;18.30;46.60;;;;;;5078071;28;20465;-67
2021/03/13 09:17:21;;;;;;;5.60;5.10;;;16.90;48.50;;;;;;5075914;28;20528;-67
2021/03/13 09:19:50;;;;;;;5.53;4.80;;;16.40;50.80;;;;;;5076350;28;20414;-67
2021/03/13 09:22:22;;;;;;;4.67;4.37;;;16.20;52.90;;;;;;5073983;28;20726;-67
2021/03/13 09:25:02;;;;;;;4.33;4.13;;;15.70;53.80;;;;;;5073725;28;20428;-68
2021/03/13 09:27:30;;;;;;;5.13;4.73;;;15.10;54.40;;;;;;5074962;28;20489;-67
2021/03/13 09:29:59;;;;;;;4.28;4.10;;;14.70;56.40;;;;;;5059456;28;20674;-67
2021/03/13 09:32:27;;;;;;;4.95;4.65;;;14.20;58.10;;;;;;5077695;28;20206;-67
2021/03/13 09:34:56;;;;;;;5.63;4.60;;;13.70;58.70;;;;;;5077406;28;20669;-69
2021/03/13 09:37:27;;;;;;;5.18;4.30;;;13.30;61.90;;;;;;5076965;28;20272;-67
2021/03/13 09:39:59;;;;;;;4.47;4.18;;;13.00;63.40;;;;;;5077422;28;20274;-67
2021/03/13 09:42:26;;;;;;;4.45;4.05;;;12.70;64.40;;;;;;5074984;28;20206;-68
2021/03/13 09:44:55;;;;;;;5.60;5.10;;;12.20;67.80;;;;;;5075246;28;20242;-68
2021/03/13 09:47:42;;;;;;;5.50;5.00;;;12.00;68.20;;;;;;5077665;28;20295;-68
2021/03/13 09:50:18;;;;;;;5.85;4.50;;;11.90;68.50;;;;;;5077189;28;20206;-69
2021/03/13 09:52:47;;;;;;;6.38;5.78;;;12.00;69.40;;;;;;5075784;28;20241;-67
2021/03/13 09:55:21;;;;;;;8.57;6.57;;;12.20;69.20;;;;;;5075530;28;20418;-66
2021/03/13 09:57:52;;;;;;;7.45;6.70;;;12.40;68.80;;;;;;5075169;28;20234;-66
2021/03/13 10:00:21;;;;;;;8.18;5.57;;;12.40;69.40;;;;;;5076031;28;20199;-67
2021/03/13 10:02:53;;;;;;;9.05;5.68;;;12.30;67.90;;;;;;5076437;28;20266;-67
2021/03/13 10:05:28;;;;;;;4.10;3.70;;;12.50;67.50;;;;;;5075112;28;20202;-67
2021/03/13 10:07:55;;;;;;;6.78;5.35;;;12.60;68.60;;;;;;5074539;28;20206;-66
2021/03/13 10:10:23;;;;;;;4.57;4.25;;;12.60;67.00;;;;;;5074811;28;20203;-66
2021/03/13 10:12:54;;;;;;;6.68;4.45;;;12.60;66.30;;;;;;5077242;28;20214;-67
2021/03/13 10:15:29;;;;;;;4.35;3.95;;;12.70;67.50;;;;;;5076789;28;20446;-66
2021/03/13 10:18:04;;;;;;;4.35;3.95;;;12.70;67.90;;;;;;5074083;28;20245;-66
2021/03/13 10:20:35;;;;;;;4.53;3.53;;;12.90;67.70;;;;;;5075155;28;20217;-67
2021/03/13 10:23:09;;;;;;;4.10;3.30;;;13.10;67.40;;;;;;5074609;28;20209;-66
2021/03/13 10:25:37;;;;;;;3.67;3.40;;;13.10;66.30;;;;;;5076081;28;20207;-67
2021/03/13 10:28:09;;;;;;;3.88;3.60;;;13.50;66.50;;;;;;5071174;28;20203;-67
2021/03/13 10:30:38;;;;;;;5.45;4.53;;;13.50;65.40;;;;;;5076708;28;20489;-68
2021/03/13 10:33:06;;;;;;;4.78;4.38;;;13.50;65.10;;;;;;5076818;28;20236;-68
2021/03/13 10:35:33;;;;;;;3.70;3.50;;;13.40;65.70;;;;;;5076670;28;20253;-67
2021/03/13 10:38:19;;;;;;;4.15;3.85;;;13.40;66.70;;;;;;5076452;28;20257;-67
2021/03/13 10:40:50;;;;;;;3.38;3.20;;;13.50;66.20;;;;;;5076749;28;20389;-66
2021/03/13 10:43:19;;;;;;;4.50;4.20;;;13.40;65.90;;;;;;5076406;28;20420;-66
2021/03/13 10:46:01;;;;;;;3.97;3.78;;;13.40;67.00;;;;;;5074589;28;20302;-67
2021/03/13 10:48:34;;;;;;;4.55;4.25;;;13.30;67.80;;;;;;5076043;28;20271;-67
2021/03/13 10:51:02;;;;;;;8.57;4.20;;;13.00;68.70;;;;;;5076850;28;20430;-67
2021/03/13 10:53:38;;;;;;;3.75;3.55;;;12.70;71.10;;;;;;5076309;28;20210;-67
2021/03/13 10:56:06;;;;;;;3.85;3.55;;;12.60;70.70;;;;;;5066249;28;20230;-68
2021/03/13 10:58:34;;;;;;;4.47;4.15;;;12.90;72.20;;;;;;5064721;28;20251;-69
2021/03/13 11:01:04;;;;;;;3.95;3.65;;;12.40;72.50;;;;;;5075652;28;20265;-68
2021/03/13 11:03:31;;;;;;;4.65;4.28;;;12.40;72.10;;;;;;5076508;28;20407;-66
2021/03/13 11:05:58;;;;;;;4.18;3.85;;;12.40;71.80;;;;;;5063395;28;20203;-67
2021/03/13 11:08:26;;;;;;;6.25;4.20;;;12.60;72.60;;;;;;5076249;28;20635;-69
2021/03/13 11:10:55;;;;;;;5.25;4.63;;;12.60;71.80;;;;;;5075374;28;20207;-67
2021/03/13 11:13:22;;;;;;;4.45;4.05;;;12.70;71.20;;;;;;5074534;28;20240;-67
2021/03/13 11:15:50;;;;;;;5.95;5.35;;;12.70;71.30;;;;;;5075892;28;20384;-66
2021/03/13 11:18:17;;;;;;;5.35;4.53;;;12.80;70.60;;;;;;5057859;28;20209;-66
2021/03/13 11:20:45;;;;;;;4.63;3.95;;;13.10;70.60;;;;;;5076070;28;20242;-67
2021/03/13 11:23:11;;;;;;;4.55;4.13;;;13.20;69.70;;;;;;5054111;28;20207;-66
2021/03/13 11:25:38;;;;;;;7.97;5.25;;;13.10;70.00;;;;;;5076014;28;20203;-66
2021/03/13 11:28:05;;;;;;;5.28;4.82;;;13.20;69.10;;;;;;5075663;28;20214;-67
2021/03/13 11:30:32;;;;;;;4.95;4.55;;;13.20;70.70;;;;;;5075031;28;20207;-66
2021/03/13 11:32:59;;;;;;;7.47;4.60;;;13.00;71.10;;;;;;5069623;28;20254;-67
2021/03/13 11:35:26;;;;;;;4.95;4.10;;;12.90;71.50;;;;;;5070426;28;20929;-67
2021/03/13 11:37:53;;;;;;;4.75;4.28;;;12.90;72.20;;;;;;5075675;28;20234;-67
2021/03/13 11:40:21;;;;;;;4.30;4.00;;;12.70;72.70;;;;;;5074088;28;20213;-68
2021/03/13 11:42:51;;;;;;;5.25;4.25;;;12.60;72.70;;;;;;5073567;28;20195;-66
2021/03/13 11:45:19;;;;;;;9.43;4.40;;;12.60;72.70;;;;;;5072649;28;20494;-68
2021/03/13 11:47:46;;;;;;;4.95;4.40;;;12.60;72.30;;;;;;5072891;28;20258;-67
2021/03/13 11:50:15;;;;;;;4.80;4.47;;;12.60;72.90;;;;;;5074935;28;20260;-67
2021/03/13 11:52:42;;;;;;;4.60;4.30;;;12.60;73.00;;;;;;5070634;28;20210;-66
2021/03/13 11:55:10;;;;;;;9.40;4.43;;;12.50;73.90;;;;;;5076009;28;20210;-67
2021/03/13 11:57:38;;;;;;;4.88;4.47;;;12.40;73.90;;;;;;5057100;28;20241;-66
2021/03/13 12:00:07;;;;;;;5.65;5.25;;;12.30;73.80;;;;;;5074436;28;20485;-67
2021/03/13 12:02:35;;;;;;;14.00;7.60;;;12.40;74.00;;;;;;5071422;28;20210;-68
2021/03/13 12:05:04;;;;;;;36.30;15.20;;;12.40;72.80;;;;;;5073100;28;20280;-67
2021/03/13 12:07:30;;;;;;;8.60;5.32;;;12.40;74.70;;;;;;5074614;28;20555;-68
2021/03/13 12:09:57;;;;;;;5.93;5.07;;;12.30;75.90;;;;;;5075794;28;20203;-67
2021/03/13 12:12:24;;;;;;;4.72;4.32;;;12.00;76.00;;;;;;5075575;28;20221;-66
2021/03/13 12:14:50;;;;;;;5.20;4.80;;;11.70;77.70;;;;;;5045924;28;20204;-67
2021/03/13 12:17:18;;;;;;;4.57;4.28;;;11.60;78.00;;;;;;5069043;28;20265;-66
2021/03/13 12:19:46;;;;;;;5.97;4.88;;;11.70;77.80;;;;;;5073790;28;20203;-68
2021/03/13 12:22:15;;;;;;;4.80;4.45;;;11.70;78.90;;;;;;5074217;28;20213;-67
2021/03/13 12:24:43;;;;;;;6.05;5.30;;;11.70;77.80;;;;;;5071395;28;20492;-67
2021/03/13 12:27:12;;;;;;;5.35;4.85;;;11.70;78.90;;;;;;5074183;28;20238;-69
2021/03/13 12:29:39;;;;;;;8.13;5.90;;;11.70;79.50;;;;;;5071922;28;20225;-66
2021/03/13 12:32:06;;;;;;;7.28;5.80;;;11.70;79.30;;;;;;5076638;28;20635;-67
2021/03/13 12:34:33;;;;;;;4.78;4.35;;;11.70;81.20;;;;;;5077706;28;20218;-68
2021/03/13 12:36:59;;;;;;;6.32;4.90;;;11.60;81.30;;;;;;5075763;28;20273;-67
2021/03/13 12:39:26;;;;;;;6.10;5.60;;;11.50;80.70;;;;;;5077783;28;20253;-66
2021/03/13 12:41:53;;;;;;;17.17;5.20;;;11.50;79.60;;;;;;5059963;28;20206;-65
2021/03/13 12:44:20;;;;;;;5.07;4.68;;;11.50;80.40;;;;;;5077877;28;20249;-67
2021/03/13 12:46:50;;;;;;;6.65;4.65;;;11.50;79.30;;;;;;5061330;28;20293;-67
2021/03/13 12:49:17;;;;;;;5.85;5.30;;;11.60;78.80;;;;;;5078506;28;20270;-67
2021/03/13 12:51:43;;;;;;;7.50;4.90;;;11.50;79.90;;;;;;5078934;28;20228;-67
2021/03/13 12:54:10;;;;;;;11.60;5.28;;;11.60;80.00;;;;;;5078329;28;20288;-67
2021/03/13 12:56:37;;;;;;;6.50;5.90;;;11.50;79.40;;;;;;5078134;28;20408;-70
2021/03/13 12:59:03;;;;;;;6.93;5.80;;;11.50;80.40;;;;;;5077545;28;20270;-66
2021/03/13 13:01:30;;;;;;;7.78;5.32;;;11.70;80.20;;;;;;5078568;28;20447;-68
2021/03/13 13:04:01;;;;;;;7.47;5.72;;;11.70;79.70;;;;;;5071531;28;20206;-68